sensor_id;sensor_type;location;lat;lon;timestamp;P1;durP1;ratioP1;P2;durP2;ratioP2
27744;SDS011;61387;48.112;8.616;2024-03-08T00:02:03;39.47;;;20.07;;
27744;SDS011;61387;48.112;8.616;2024-03-08T00:04:29;37.27;;;19.63;;
27744;SDS011;61387;48.112;8.616;2024-03-08T00:06:55;37.93;;;18.07;;
27744;SDS011;61387;48.112;8.616;2024-03-08T00:09:21;36.27;;;18.97;;
27744;SDS011;61387;48.112;8.616;2024-03-08T00:11:47;37.17;;;18.67;;
27744;SDS011;61387;48.112;8.616;2024-03-08T00:14:15;37.30;;;18.40;;
27744;SDS011;61387;48.112;8.616;2024-03-08T00:16:41;35.77;;;17.90;;
27744;SDS011;61387;48.112;8.616;2024-03-08T00:19:08;36.83;;;18.10;;
27744;SDS011;61387;48.112;8.616;2024-03-08T00:21:34;34.63;;;17.97;;
27744;SDS011;61387;48.112;8.616;2024-03-08T00:24:01;37.40;;;18.03;;
27744;SDS011;61387;48.112;8.616;2024-03-08T00:26:26;36.23;;;17.50;;
27744;SDS011;61387;48.112;8.616;2024-03-08T00:28:54;37.20;;;19.20;;
27744;SDS011;61387;48.112;8.616;2024-03-08T00:31:20;37.23;;;18.60;;
27744;SDS011;61387;48.112;8.616;2024-03-08T00:33:46;33.43;;;17.87;;
27744;SDS011;61387;48.112;8.616;2024-03-08T00:36:12;36.80;;;18.90;;
27744;SDS011;61387;48.112;8.616;2024-03-08T00:38:38;35.73;;;18.20;;
27744;SDS011;61387;48.112;8.616;2024-03-08T00:41:04;39.87;;;18.77;;
27744;SDS011;61387;48.112;8.616;2024-03-08T00:43:30;38.70;;;18.45;;
27744;SDS011;61387;48.112;8.616;2024-03-08T00:45:56;33.97;;;17.80;;
27744;SDS011;61387;48.112;8.616;2024-03-08T00:48:22;31.80;;;16.27;;
27744;SDS011;61387;48.112;8.616;2024-03-08T00:50:48;32.07;;;16.13;;
27744;SDS011;61387;48.112;8.616;2024-03-08T00:53:14;33.40;;;16.67;;
27744;SDS011;61387;48.112;8.616;2024-03-08T00:55:40;33.00;;;17.13;;
27744;SDS011;61387;48.112;8.616;2024-03-08T00:58:06;28.97;;;15.07;;
27744;SDS011;61387;48.112;8.616;2024-03-08T01:00:34;32.07;;;15.73;;
27744;SDS011;61387;48.112;8.616;2024-03-08T01:03:00;31.67;;;16.87;;
27744;SDS011;61387;48.112;8.616;2024-03-08T01:05:26;30.30;;;15.17;;
27744;SDS011;61387;48.112;8.616;2024-03-08T01:07:52;33.10;;;15.60;;
27744;SDS011;61387;48.112;8.616;2024-03-08T01:10:18;33.53;;;16.70;;
27744;SDS011;61387;48.112;8.616;2024-03-08T01:12:44;32.60;;;16.30;;
27744;SDS011;61387;48.112;8.616;2024-03-08T01:15:10;31.50;;;16.73;;
27744;SDS011;61387;48.112;8.616;2024-03-08T01:17:36;33.77;;;16.07;;
27744;SDS011;61387;48.112;8.616;2024-03-08T01:20:02;34.60;;;16.27;;
27744;SDS011;61387;48.112;8.616;2024-03-08T01:22:29;34.10;;;16.37;;
27744;SDS011;61387;48.112;8.616;2024-03-08T01:24:55;34.07;;;16.67;;
27744;SDS011;61387;48.112;8.616;2024-03-08T01:27:21;31.73;;;16.47;;
27744;SDS011;61387;48.112;8.616;2024-03-08T01:29:47;36.97;;;17.23;;
27744;SDS011;61387;48.112;8.616;2024-03-08T01:32:13;34.77;;;17.93;;
27744;SDS011;61387;48.112;8.616;2024-03-08T01:34:40;38.53;;;17.43;;
27744;SDS011;61387;48.112;8.616;2024-03-08T01:37:05;38.57;;;17.97;;
27744;SDS011;61387;48.112;8.616;2024-03-08T01:39:32;34.57;;;16.80;;
27744;SDS011;61387;48.112;8.616;2024-03-08T01:41:58;35.37;;;16.87;;
27744;SDS011;61387;48.112;8.616;2024-03-08T01:44:24;40.33;;;17.37;;
27744;SDS011;61387;48.112;8.616;2024-03-08T01:46:50;35.57;;;18.30;;
27744;SDS011;61387;48.112;8.616;2024-03-08T01:49:18;36.17;;;17.97;;
27744;SDS011;61387;48.112;8.616;2024-03-08T01:51:45;35.67;;;16.83;;
27744;SDS011;61387;48.112;8.616;2024-03-08T01:54:12;34.30;;;17.87;;
27744;SDS011;61387;48.112;8.616;2024-03-08T01:56:40;37.13;;;18.17;;
27744;SDS011;61387;48.112;8.616;2024-03-08T01:59:06;33.17;;;17.77;;
27744;SDS011;61387;48.112;8.616;2024-03-08T02:01:32;37.90;;;18.90;;
27744;SDS011;61387;48.112;8.616;2024-03-08T02:03:59;32.43;;;16.90;;
27744;SDS011;61387;48.112;8.616;2024-03-08T02:06:25;35.57;;;17.53;;
27744;SDS011;61387;48.112;8.616;2024-03-08T02:08:51;38.53;;;19.03;;
27744;SDS011;61387;48.112;8.616;2024-03-08T02:11:17;38.17;;;18.87;;
27744;SDS011;61387;48.112;8.616;2024-03-08T02:13:45;36.80;;;18.63;;
27744;SDS011;61387;48.112;8.616;2024-03-08T02:16:11;39.53;;;19.67;;
27744;SDS011;61387;48.112;8.616;2024-03-08T02:18:37;37.53;;;18.73;;
27744;SDS011;61387;48.112;8.616;2024-03-08T02:21:05;36.37;;;17.83;;
27744;SDS011;61387;48.112;8.616;2024-03-08T02:23:31;46.03;;;20.27;;
27744;SDS011;61387;48.112;8.616;2024-03-08T02:25:57;42.93;;;19.10;;
27744;SDS011;61387;48.112;8.616;2024-03-08T02:28:23;39.63;;;19.83;;
27744;SDS011;61387;48.112;8.616;2024-03-08T02:30:56;42.67;;;20.23;;
27744;SDS011;61387;48.112;8.616;2024-03-08T02:33:22;41.27;;;19.87;;
27744;SDS011;61387;48.112;8.616;2024-03-08T02:35:48;40.87;;;19.73;;
27744;SDS011;61387;48.112;8.616;2024-03-08T02:38:16;40.30;;;19.50;;
27744;SDS011;61387;48.112;8.616;2024-03-08T02:40:43;40.70;;;19.17;;
27744;SDS011;61387;48.112;8.616;2024-03-08T02:43:10;43.00;;;20.67;;
27744;SDS011;61387;48.112;8.616;2024-03-08T02:45:36;39.80;;;20.23;;
27744;SDS011;61387;48.112;8.616;2024-03-08T02:48:02;38.70;;;19.73;;
27744;SDS011;61387;48.112;8.616;2024-03-08T02:50:28;41.70;;;20.77;;
27744;SDS011;61387;48.112;8.616;2024-03-08T02:52:54;43.53;;;20.23;;
27744;SDS011;61387;48.112;8.616;2024-03-08T02:55:20;37.97;;;18.93;;
27744;SDS011;61387;48.112;8.616;2024-03-08T02:57:46;41.33;;;19.77;;
27744;SDS011;61387;48.112;8.616;2024-03-08T03:00:12;39.03;;;19.97;;
27744;SDS011;61387;48.112;8.616;2024-03-08T03:02:38;36.83;;;18.83;;
27744;SDS011;61387;48.112;8.616;2024-03-08T03:05:05;40.77;;;20.47;;
27744;SDS011;61387;48.112;8.616;2024-03-08T03:07:34;34.73;;;18.30;;
27744;SDS011;61387;48.112;8.616;2024-03-08T03:09:59;37.60;;;19.60;;
27744;SDS011;61387;48.112;8.616;2024-03-08T03:12:26;36.97;;;18.90;;
27744;SDS011;61387;48.112;8.616;2024-03-08T03:14:53;39.07;;;19.07;;
27744;SDS011;61387;48.112;8.616;2024-03-08T03:17:19;38.00;;;19.23;;
27744;SDS011;61387;48.112;8.616;2024-03-08T03:19:45;35.80;;;19.17;;
27744;SDS011;61387;48.112;8.616;2024-03-08T03:22:14;38.60;;;19.07;;
27744;SDS011;61387;48.112;8.616;2024-03-08T03:24:40;35.57;;;18.47;;
27744;SDS011;61387;48.112;8.616;2024-03-08T03:27:07;35.70;;;19.07;;
27744;SDS011;61387;48.112;8.616;2024-03-08T03:29:36;35.77;;;18.47;;
27744;SDS011;61387;48.112;8.616;2024-03-08T03:32:02;38.23;;;19.40;;
27744;SDS011;61387;48.112;8.616;2024-03-08T03:34:29;37.37;;;18.93;;
27744;SDS011;61387;48.112;8.616;2024-03-08T03:36:55;32.70;;;17.23;;
27744;SDS011;61387;48.112;8.616;2024-03-08T03:39:21;34.60;;;17.60;;
27744;SDS011;61387;48.112;8.616;2024-03-08T03:41:47;33.63;;;17.30;;
27744;SDS011;61387;48.112;8.616;2024-03-08T03:44:16;38.20;;;18.77;;
27744;SDS011;61387;48.112;8.616;2024-03-08T03:46:42;34.87;;;18.73;;
27744;SDS011;61387;48.112;8.616;2024-03-08T03:49:11;34.63;;;17.90;;
27744;SDS011;61387;48.112;8.616;2024-03-08T03:51:37;33.60;;;17.57;;
27744;SDS011;61387;48.112;8.616;2024-03-08T03:54:04;36.10;;;19.23;;
27744;SDS011;61387;48.112;8.616;2024-03-08T03:56:30;34.67;;;18.83;;
27744;SDS011;61387;48.112;8.616;2024-03-08T03:58:56;37.13;;;18.47;;
27744;SDS011;61387;48.112;8.616;2024-03-08T04:01:21;36.13;;;18.10;;
27744;SDS011;61387;48.112;8.616;2024-03-08T04:03:48;33.77;;;18.13;;
27744;SDS011;61387;48.112;8.616;2024-03-08T04:06:13;35.13;;;18.63;;
27744;SDS011;61387;48.112;8.616;2024-03-08T04:08:40;34.60;;;18.13;;
27744;SDS011;61387;48.112;8.616;2024-03-08T04:11:06;33.60;;;17.80;;
27744;SDS011;61387;48.112;8.616;2024-03-08T04:13:33;36.97;;;18.40;;
27744;SDS011;61387;48.112;8.616;2024-03-08T04:15:59;35.17;;;18.17;;
27744;SDS011;61387;48.112;8.616;2024-03-08T04:18:25;34.77;;;18.23;;
27744;SDS011;61387;48.112;8.616;2024-03-08T04:20:51;35.63;;;18.10;;
27744;SDS011;61387;48.112;8.616;2024-03-08T04:23:17;37.07;;;19.00;;
27744;SDS011;61387;48.112;8.616;2024-03-08T04:25:43;34.17;;;17.33;;
27744;SDS011;61387;48.112;8.616;2024-03-08T04:28:09;35.87;;;17.90;;
27744;SDS011;61387;48.112;8.616;2024-03-08T04:30:38;35.33;;;17.90;;
27744;SDS011;61387;48.112;8.616;2024-03-08T04:33:04;32.40;;;17.40;;
27744;SDS011;61387;48.112;8.616;2024-03-08T04:35:31;36.27;;;18.73;;
27744;SDS011;61387;48.112;8.616;2024-03-08T04:37:58;35.53;;;17.90;;
27744;SDS011;61387;48.112;8.616;2024-03-08T04:40:24;35.80;;;18.77;;
27744;SDS011;61387;48.112;8.616;2024-03-08T04:42:50;36.13;;;18.20;;
27744;SDS011;61387;48.112;8.616;2024-03-08T04:45:17;34.57;;;18.53;;
27744;SDS011;61387;48.112;8.616;2024-03-08T04:47:43;37.53;;;19.43;;
27744;SDS011;61387;48.112;8.616;2024-03-08T04:50:10;33.90;;;18.20;;
27744;SDS011;61387;48.112;8.616;2024-03-08T04:52:36;33.93;;;18.07;;
27744;SDS011;61387;48.112;8.616;2024-03-08T04:55:02;36.70;;;18.70;;
27744;SDS011;61387;48.112;8.616;2024-03-08T04:57:30;38.37;;;19.70;;
27744;SDS011;61387;48.112;8.616;2024-03-08T04:59:55;34.77;;;18.37;;
27744;SDS011;61387;48.112;8.616;2024-03-08T05:02:26;40.07;;;20.13;;
27744;SDS011;61387;48.112;8.616;2024-03-08T05:04:51;35.03;;;18.57;;
27744;SDS011;61387;48.112;8.616;2024-03-08T05:07:17;37.00;;;18.37;;
27744;SDS011;61387;48.112;8.616;2024-03-08T05:09:44;33.87;;;18.13;;
27744;SDS011;61387;48.112;8.616;2024-03-08T05:12:16;34.93;;;18.60;;
27744;SDS011;61387;48.112;8.616;2024-03-08T05:14:42;37.17;;;18.80;;
27744;SDS011;61387;48.112;8.616;2024-03-08T05:17:08;35.63;;;18.20;;
27744;SDS011;61387;48.112;8.616;2024-03-08T05:19:34;38.53;;;18.63;;
27744;SDS011;61387;48.112;8.616;2024-03-08T05:22:01;37.83;;;18.57;;
27744;SDS011;61387;48.112;8.616;2024-03-08T05:24:28;35.60;;;18.03;;
27744;SDS011;61387;48.112;8.616;2024-03-08T05:26:55;37.43;;;19.13;;
27744;SDS011;61387;48.112;8.616;2024-03-08T05:29:20;38.23;;;19.57;;
27744;SDS011;61387;48.112;8.616;2024-03-08T05:31:48;38.10;;;17.90;;
27744;SDS011;61387;48.112;8.616;2024-03-08T05:34:15;36.87;;;19.07;;
27744;SDS011;61387;48.112;8.616;2024-03-08T05:36:41;42.07;;;18.97;;
27744;SDS011;61387;48.112;8.616;2024-03-08T05:39:12;37.53;;;19.13;;
27744;SDS011;61387;48.112;8.616;2024-03-08T05:41:44;39.07;;;19.23;;
27744;SDS011;61387;48.112;8.616;2024-03-08T05:44:11;37.33;;;19.03;;
27744;SDS011;61387;48.112;8.616;2024-03-08T05:46:37;36.37;;;18.07;;
27744;SDS011;61387;48.112;8.616;2024-03-08T05:49:03;40.53;;;20.40;;
27744;SDS011;61387;48.112;8.616;2024-03-08T05:51:38;35.03;;;18.07;;
27744;SDS011;61387;48.112;8.616;2024-03-08T05:54:05;40.53;;;20.30;;
27744;SDS011;61387;48.112;8.616;2024-03-08T05:56:37;39.60;;;19.23;;
27744;SDS011;61387;48.112;8.616;2024-03-08T05:59:07;36.57;;;18.20;;
27744;SDS011;61387;48.112;8.616;2024-03-08T06:01:34;43.33;;;21.80;;
27744;SDS011;61387;48.112;8.616;2024-03-08T06:04:01;37.73;;;19.10;;
27744;SDS011;61387;48.112;8.616;2024-03-08T06:06:28;33.50;;;17.60;;
27744;SDS011;61387;48.112;8.616;2024-03-08T06:08:54;33.00;;;16.87;;
27744;SDS011;61387;48.112;8.616;2024-03-08T06:11:21;36.83;;;16.87;;
27744;SDS011;61387;48.112;8.616;2024-03-08T06:13:47;36.57;;;17.53;;
27744;SDS011;61387;48.112;8.616;2024-03-08T06:16:14;33.27;;;16.77;;
27744;SDS011;61387;48.112;8.616;2024-03-08T06:18:40;33.53;;;17.23;;
27744;SDS011;61387;48.112;8.616;2024-03-08T06:21:06;36.53;;;17.77;;
27744;SDS011;61387;48.112;8.616;2024-03-08T06:23:34;33.50;;;16.90;;
27744;SDS011;61387;48.112;8.616;2024-03-08T06:26:06;32.33;;;17.30;;
27744;SDS011;61387;48.112;8.616;2024-03-08T06:28:32;33.57;;;18.20;;
27744;SDS011;61387;48.112;8.616;2024-03-08T06:30:59;32.83;;;16.53;;
27744;SDS011;61387;48.112;8.616;2024-03-08T06:33:29;37.80;;;16.83;;
27744;SDS011;61387;48.112;8.616;2024-03-08T06:35:57;34.70;;;16.30;;
27744;SDS011;61387;48.112;8.616;2024-03-08T06:38:23;39.60;;;21.13;;
27744;SDS011;61387;48.112;8.616;2024-03-08T06:40:49;45.33;;;22.07;;
27744;SDS011;61387;48.112;8.616;2024-03-08T06:43:16;31.90;;;15.50;;
27744;SDS011;61387;48.112;8.616;2024-03-08T06:45:43;30.63;;;15.30;;
27744;SDS011;61387;48.112;8.616;2024-03-08T06:48:18;33.83;;;14.97;;
27744;SDS011;61387;48.112;8.616;2024-03-08T06:50:44;31.07;;;15.10;;
27744;SDS011;61387;48.112;8.616;2024-03-08T06:53:11;31.10;;;14.03;;
27744;SDS011;61387;48.112;8.616;2024-03-08T06:55:37;33.10;;;14.77;;
27744;SDS011;61387;48.112;8.616;2024-03-08T06:58:03;28.93;;;13.10;;
27744;SDS011;61387;48.112;8.616;2024-03-08T07:00:29;27.23;;;12.63;;
27744;SDS011;61387;48.112;8.616;2024-03-08T07:02:56;28.50;;;13.27;;
27744;SDS011;61387;48.112;8.616;2024-03-08T07:05:28;27.20;;;13.10;;
27744;SDS011;61387;48.112;8.616;2024-03-08T07:07:54;28.33;;;12.90;;
27744;SDS011;61387;48.112;8.616;2024-03-08T07:10:21;26.07;;;12.07;;
27744;SDS011;61387;48.112;8.616;2024-03-08T07:12:49;28.23;;;13.77;;
27744;SDS011;61387;48.112;8.616;2024-03-08T07:15:15;30.50;;;13.60;;
27744;SDS011;61387;48.112;8.616;2024-03-08T07:17:41;29.53;;;13.03;;
27744;SDS011;61387;48.112;8.616;2024-03-08T07:20:09;26.50;;;12.77;;
27744;SDS011;61387;48.112;8.616;2024-03-08T07:22:38;28.17;;;12.60;;
27744;SDS011;61387;48.112;8.616;2024-03-08T07:25:08;25.20;;;12.47;;
27744;SDS011;61387;48.112;8.616;2024-03-08T07:27:46;40.80;;;21.07;;
27744;SDS011;61387;48.112;8.616;2024-03-08T07:30:22;27.80;;;12.77;;
27744;SDS011;61387;48.112;8.616;2024-03-08T07:33:08;25.73;;;12.53;;
27744;SDS011;61387;48.112;8.616;2024-03-08T07:35:36;30.73;;;14.60;;
27744;SDS011;61387;48.112;8.616;2024-03-08T07:38:12;26.87;;;12.97;;
27744;SDS011;61387;48.112;8.616;2024-03-08T07:40:38;26.50;;;13.00;;
27744;SDS011;61387;48.112;8.616;2024-03-08T07:43:08;30.70;;;13.83;;
27744;SDS011;61387;48.112;8.616;2024-03-08T07:45:37;28.47;;;12.93;;
27744;SDS011;61387;48.112;8.616;2024-03-08T07:48:04;24.80;;;13.20;;
27744;SDS011;61387;48.112;8.616;2024-03-08T07:50:34;28.10;;;12.53;;
27744;SDS011;61387;48.112;8.616;2024-03-08T07:53:00;28.57;;;12.97;;
27744;SDS011;61387;48.112;8.616;2024-03-08T07:55:28;26.83;;;12.70;;
27744;SDS011;61387;48.112;8.616;2024-03-08T07:57:56;25.33;;;12.27;;
27744;SDS011;61387;48.112;8.616;2024-03-08T08:00:21;26.70;;;12.73;;
27744;SDS011;61387;48.112;8.616;2024-03-08T08:02:49;25.33;;;12.00;;
27744;SDS011;61387;48.112;8.616;2024-03-08T08:05:15;25.17;;;12.70;;
27744;SDS011;61387;48.112;8.616;2024-03-08T08:07:44;26.10;;;12.77;;
27744;SDS011;61387;48.112;8.616;2024-03-08T08:10:09;29.47;;;12.97;;
27744;SDS011;61387;48.112;8.616;2024-03-08T08:12:43;23.27;;;11.27;;
27744;SDS011;61387;48.112;8.616;2024-03-08T08:15:09;25.83;;;13.17;;
27744;SDS011;61387;48.112;8.616;2024-03-08T08:17:35;24.73;;;15.20;;
27744;SDS011;61387;48.112;8.616;2024-03-08T08:20:01;23.30;;;11.83;;
27744;SDS011;61387;48.112;8.616;2024-03-08T08:22:30;22.67;;;11.33;;
27744;SDS011;61387;48.112;8.616;2024-03-08T08:24:56;22.20;;;11.43;;
27744;SDS011;61387;48.112;8.616;2024-03-08T08:27:22;20.30;;;11.00;;
27744;SDS011;61387;48.112;8.616;2024-03-08T08:29:48;22.20;;;11.77;;
27744;SDS011;61387;48.112;8.616;2024-03-08T08:32:14;23.30;;;11.63;;
27744;SDS011;61387;48.112;8.616;2024-03-08T08:34:40;21.83;;;11.33;;
27744;SDS011;61387;48.112;8.616;2024-03-08T08:37:07;20.33;;;10.57;;
27744;SDS011;61387;48.112;8.616;2024-03-08T08:39:34;26.93;;;12.13;;
27744;SDS011;61387;48.112;8.616;2024-03-08T08:42:00;21.00;;;11.47;;
27744;SDS011;61387;48.112;8.616;2024-03-08T08:44:28;22.13;;;11.00;;
27744;SDS011;61387;48.112;8.616;2024-03-08T08:46:56;20.50;;;10.60;;
27744;SDS011;61387;48.112;8.616;2024-03-08T08:49:22;20.43;;;10.53;;
27744;SDS011;61387;48.112;8.616;2024-03-08T08:51:49;22.07;;;11.80;;
27744;SDS011;61387;48.112;8.616;2024-03-08T08:54:15;22.43;;;12.67;;
27744;SDS011;61387;48.112;8.616;2024-03-08T08:56:42;21.60;;;12.30;;
27744;SDS011;61387;48.112;8.616;2024-03-08T08:59:12;24.27;;;12.17;;
27744;SDS011;61387;48.112;8.616;2024-03-08T09:01:44;25.60;;;13.67;;
27744;SDS011;61387;48.112;8.616;2024-03-08T09:04:12;25.13;;;12.53;;
27744;SDS011;61387;48.112;8.616;2024-03-08T09:06:37;20.90;;;11.70;;
27744;SDS011;61387;48.112;8.616;2024-03-08T09:09:06;22.13;;;11.17;;
27744;SDS011;61387;48.112;8.616;2024-03-08T09:11:35;23.43;;;12.13;;
27744;SDS011;61387;48.112;8.616;2024-03-08T09:14:03;19.60;;;10.70;;
27744;SDS011;61387;48.112;8.616;2024-03-08T09:16:30;23.17;;;11.60;;
27744;SDS011;61387;48.112;8.616;2024-03-08T09:18:58;21.03;;;11.87;;
27744;SDS011;61387;48.112;8.616;2024-03-08T09:21:24;23.93;;;12.43;;
27744;SDS011;61387;48.112;8.616;2024-03-08T09:23:52;22.23;;;11.80;;
27744;SDS011;61387;48.112;8.616;2024-03-08T09:26:18;25.67;;;13.00;;
27744;SDS011;61387;48.112;8.616;2024-03-08T09:28:44;22.13;;;10.83;;
27744;SDS011;61387;48.112;8.616;2024-03-08T09:31:10;21.13;;;11.27;;
27744;SDS011;61387;48.112;8.616;2024-03-08T09:33:41;20.33;;;10.93;;
27744;SDS011;61387;48.112;8.616;2024-03-08T09:36:07;21.50;;;11.30;;
27744;SDS011;61387;48.112;8.616;2024-03-08T09:38:33;23.47;;;12.17;;
27744;SDS011;61387;48.112;8.616;2024-03-08T09:41:00;20.53;;;11.90;;
27744;SDS011;61387;48.112;8.616;2024-03-08T09:43:26;23.57;;;11.70;;
27744;SDS011;61387;48.112;8.616;2024-03-08T09:45:53;22.37;;;11.57;;
27744;SDS011;61387;48.112;8.616;2024-03-08T09:48:20;22.57;;;10.93;;
27744;SDS011;61387;48.112;8.616;2024-03-08T09:50:47;18.17;;;10.57;;
27744;SDS011;61387;48.112;8.616;2024-03-08T09:53:14;19.87;;;10.73;;
27744;SDS011;61387;48.112;8.616;2024-03-08T09:55:40;17.43;;;10.03;;
27744;SDS011;61387;48.112;8.616;2024-03-08T09:58:10;17.87;;;10.13;;
27744;SDS011;61387;48.112;8.616;2024-03-08T10:00:56;41.60;;;23.60;;
27744;SDS011;61387;48.112;8.616;2024-03-08T10:03:23;26.67;;;17.47;;
27744;SDS011;61387;48.112;8.616;2024-03-08T10:05:51;19.43;;;10.70;;
27744;SDS011;61387;48.112;8.616;2024-03-08T10:08:17;20.37;;;10.40;;
27744;SDS011;61387;48.112;8.616;2024-03-08T10:10:43;21.60;;;11.27;;
27744;SDS011;61387;48.112;8.616;2024-03-08T10:13:09;18.02;;;10.63;;
27744;SDS011;61387;48.112;8.616;2024-03-08T10:15:37;18.10;;;10.40;;
27744;SDS011;61387;48.112;8.616;2024-03-08T10:18:05;17.40;;;9.90;;
27744;SDS011;61387;48.112;8.616;2024-03-08T10:20:31;17.40;;;9.73;;
27744;SDS011;61387;48.112;8.616;2024-03-08T10:22:58;18.23;;;10.07;;
27744;SDS011;61387;48.112;8.616;2024-03-08T10:25:25;18.70;;;10.63;;
27744;SDS011;61387;48.112;8.616;2024-03-08T10:27:51;15.60;;;9.63;;
27744;SDS011;61387;48.112;8.616;2024-03-08T10:30:17;19.07;;;10.33;;
27744;SDS011;61387;48.112;8.616;2024-03-08T10:32:46;18.20;;;9.67;;
27744;SDS011;61387;48.112;8.616;2024-03-08T10:35:12;16.87;;;9.63;;
27744;SDS011;61387;48.112;8.616;2024-03-08T10:37:48;17.07;;;9.53;;
27744;SDS011;61387;48.112;8.616;2024-03-08T10:40:22;17.70;;;10.07;;
27744;SDS011;61387;48.112;8.616;2024-03-08T10:42:53;18.10;;;9.87;;
27744;SDS011;61387;48.112;8.616;2024-03-08T10:47:50;16.97;;;9.37;;
27744;SDS011;61387;48.112;8.616;2024-03-08T10:50:29;17.37;;;10.10;;
27744;SDS011;61387;48.112;8.616;2024-03-08T10:52:58;18.23;;;9.57;;
27744;SDS011;61387;48.112;8.616;2024-03-08T10:55:26;16.77;;;9.83;;
27744;SDS011;61387;48.112;8.616;2024-03-08T10:57:53;16.17;;;9.83;;
27744;SDS011;61387;48.112;8.616;2024-03-08T11:00:19;15.87;;;9.50;;
27744;SDS011;61387;48.112;8.616;2024-03-08T11:02:51;17.57;;;10.07;;
27744;SDS011;61387;48.112;8.616;2024-03-08T11:10:54;16.73;;;9.00;;
27744;SDS011;61387;48.112;8.616;2024-03-08T11:16:43;15.53;;;9.60;;
27744;SDS011;61387;48.112;8.616;2024-03-08T11:21:35;17.40;;;9.40;;
27744;SDS011;61387;48.112;8.616;2024-03-08T11:24:13;16.13;;;9.27;;
27744;SDS011;61387;48.112;8.616;2024-03-08T11:26:41;17.10;;;9.77;;
27744;SDS011;61387;48.112;8.616;2024-03-08T11:29:41;17.33;;;9.60;;
27744;SDS011;61387;48.112;8.616;2024-03-08T11:34:37;18.23;;;10.70;;
27744;SDS011;61387;48.112;8.616;2024-03-08T11:37:08;16.90;;;9.23;;
27744;SDS011;61387;48.112;8.616;2024-03-08T11:39:40;16.30;;;9.57;;
27744;SDS011;61387;48.112;8.616;2024-03-08T11:42:06;16.37;;;9.70;;
27744;SDS011;61387;48.112;8.616;2024-03-08T11:44:32;17.33;;;9.97;;
27744;SDS011;61387;48.112;8.616;2024-03-08T11:46:58;16.40;;;9.90;;
27744;SDS011;61387;48.112;8.616;2024-03-08T11:49:24;15.93;;;9.43;;
27744;SDS011;61387;48.112;8.616;2024-03-08T11:51:51;15.60;;;8.93;;
27744;SDS011;61387;48.112;8.616;2024-03-08T11:54:18;17.60;;;10.17;;
27744;SDS011;61387;48.112;8.616;2024-03-08T11:56:44;16.50;;;9.70;;
27744;SDS011;61387;48.112;8.616;2024-03-08T11:59:13;15.30;;;9.50;;
27744;SDS011;61387;48.112;8.616;2024-03-08T12:01:39;19.20;;;11.60;;
27744;SDS011;61387;48.112;8.616;2024-03-08T12:04:05;17.37;;;10.30;;
27744;SDS011;61387;48.112;8.616;2024-03-08T12:06:38;15.43;;;9.37;;
27744;SDS011;61387;48.112;8.616;2024-03-08T12:09:08;14.47;;;8.73;;
27744;SDS011;61387;48.112;8.616;2024-03-08T12:11:35;14.77;;;9.03;;
27744;SDS011;61387;48.112;8.616;2024-03-08T12:14:02;17.23;;;9.73;;
27744;SDS011;61387;48.112;8.616;2024-03-08T12:16:28;15.50;;;9.57;;
27744;SDS011;61387;48.112;8.616;2024-03-08T12:18:54;14.43;;;8.43;;
27744;SDS011;61387;48.112;8.616;2024-03-08T12:21:20;15.33;;;7.83;;
27744;SDS011;61387;48.112;8.616;2024-03-08T12:23:50;14.07;;;8.23;;
27744;SDS011;61387;48.112;8.616;2024-03-08T12:26:34;16.03;;;9.37;;
27744;SDS011;61387;48.112;8.616;2024-03-08T12:29:17;15.10;;;9.57;;
27744;SDS011;61387;48.112;8.616;2024-03-08T12:31:48;14.77;;;9.03;;
27744;SDS011;61387;48.112;8.616;2024-03-08T12:34:18;16.97;;;9.20;;
27744;SDS011;61387;48.112;8.616;2024-03-08T12:36:44;16.43;;;9.30;;
27744;SDS011;61387;48.112;8.616;2024-03-08T12:39:17;16.63;;;9.47;;
27744;SDS011;61387;48.112;8.616;2024-03-08T12:41:46;15.57;;;9.37;;
27744;SDS011;61387;48.112;8.616;2024-03-08T12:44:12;14.53;;;9.17;;
27744;SDS011;61387;48.112;8.616;2024-03-08T12:46:38;15.50;;;9.43;;
27744;SDS011;61387;48.112;8.616;2024-03-08T12:49:10;15.73;;;9.30;;
27744;SDS011;61387;48.112;8.616;2024-03-08T12:51:37;13.40;;;8.53;;
27744;SDS011;61387;48.112;8.616;2024-03-08T12:54:04;17.43;;;9.83;;
27744;SDS011;61387;48.112;8.616;2024-03-08T12:56:32;17.47;;;9.57;;
27744;SDS011;61387;48.112;8.616;2024-03-08T12:58:59;15.53;;;9.83;;
27744;SDS011;61387;48.112;8.616;2024-03-08T13:01:26;14.90;;;8.63;;
27744;SDS011;61387;48.112;8.616;2024-03-08T13:03:52;14.67;;;9.27;;
27744;SDS011;61387;48.112;8.616;2024-03-08T13:06:19;15.10;;;9.70;;
27744;SDS011;61387;48.112;8.616;2024-03-08T13:08:47;14.23;;;9.27;;
27744;SDS011;61387;48.112;8.616;2024-03-08T13:11:13;16.57;;;9.50;;
27744;SDS011;61387;48.112;8.616;2024-03-08T13:13:39;13.63;;;8.73;;
27744;SDS011;61387;48.112;8.616;2024-03-08T13:16:08;16.27;;;9.10;;
27744;SDS011;61387;48.112;8.616;2024-03-08T13:18:34;16.30;;;9.47;;
27744;SDS011;61387;48.112;8.616;2024-03-08T13:21:00;15.07;;;8.77;;
27744;SDS011;61387;48.112;8.616;2024-03-08T13:23:32;14.57;;;9.00;;
27744;SDS011;61387;48.112;8.616;2024-03-08T13:26:04;14.53;;;9.03;;
27744;SDS011;61387;48.112;8.616;2024-03-08T13:28:31;13.57;;;8.80;;
27744;SDS011;61387;48.112;8.616;2024-03-08T13:31:01;14.93;;;9.80;;
27744;SDS011;61387;48.112;8.616;2024-03-08T13:33:28;14.70;;;8.50;;
27744;SDS011;61387;48.112;8.616;2024-03-08T13:35:55;14.40;;;9.03;;
27744;SDS011;61387;48.112;8.616;2024-03-08T13:38:22;15.80;;;9.37;;
27744;SDS011;61387;48.112;8.616;2024-03-08T13:40:48;14.07;;;8.73;;
27744;SDS011;61387;48.112;8.616;2024-03-08T13:43:14;14.13;;;9.03;;
27744;SDS011;61387;48.112;8.616;2024-03-08T13:45:41;16.70;;;9.60;;
27744;SDS011;61387;48.112;8.616;2024-03-08T13:48:07;14.67;;;9.03;;
27744;SDS011;61387;48.112;8.616;2024-03-08T13:50:37;14.37;;;8.70;;
27744;SDS011;61387;48.112;8.616;2024-03-08T13:53:03;15.30;;;9.43;;
27744;SDS011;61387;48.112;8.616;2024-03-08T13:55:29;14.30;;;9.57;;
27744;SDS011;61387;48.112;8.616;2024-03-08T13:57:57;16.90;;;9.33;;
27744;SDS011;61387;48.112;8.616;2024-03-08T14:00:24;15.10;;;9.20;;
27744;SDS011;61387;48.112;8.616;2024-03-08T14:02:52;13.87;;;8.43;;
27744;SDS011;61387;48.112;8.616;2024-03-08T14:05:21;13.93;;;8.53;;
27744;SDS011;61387;48.112;8.616;2024-03-08T14:07:47;15.83;;;8.70;;
27744;SDS011;61387;48.112;8.616;2024-03-08T14:10:14;13.97;;;8.33;;
27744;SDS011;61387;48.112;8.616;2024-03-08T14:12:40;15.50;;;9.83;;
27744;SDS011;61387;48.112;8.616;2024-03-08T14:15:08;15.57;;;8.87;;
27744;SDS011;61387;48.112;8.616;2024-03-08T14:17:34;15.17;;;8.53;;
27744;SDS011;61387;48.112;8.616;2024-03-08T14:20:01;16.27;;;9.43;;
27744;SDS011;61387;48.112;8.616;2024-03-08T14:22:27;17.57;;;9.03;;
27744;SDS011;61387;48.112;8.616;2024-03-08T14:24:53;15.83;;;9.13;;
27744;SDS011;61387;48.112;8.616;2024-03-08T14:27:20;13.60;;;8.50;;
27744;SDS011;61387;48.112;8.616;2024-03-08T14:29:47;14.30;;;8.90;;
27744;SDS011;61387;48.112;8.616;2024-03-08T14:32:13;14.00;;;8.73;;
27744;SDS011;61387;48.112;8.616;2024-03-08T14:34:39;16.67;;;9.50;;
27744;SDS011;61387;48.112;8.616;2024-03-08T14:37:05;12.77;;;7.83;;
27744;SDS011;61387;48.112;8.616;2024-03-08T14:39:36;13.70;;;7.93;;
27744;SDS011;61387;48.112;8.616;2024-03-08T14:42:02;12.67;;;8.03;;
27744;SDS011;61387;48.112;8.616;2024-03-08T14:44:28;12.43;;;7.17;;